createdAt,value
2024-05-09T00:01:15.873Z,50.79
2024-05-09T00:06:18.237Z,50.54
2024-05-09T00:11:21.165Z,50.70
2024-05-09T00:16:23.813Z,51.29
2024-05-09T00:21:26.020Z,51.61
2024-05-09T00:26:28.376Z,51.64
2024-05-09T00:31:30.807Z,51.34
2024-05-09T00:36:33.200Z,51.16
2024-05-09T00:41:35.759Z,51.42
2024-05-09T00:46:39.142Z,51.54
2024-05-09T00:51:43.493Z,51.72
2024-05-09T00:56:46.519Z,51.63
2024-05-09T01:01:50.074Z,52.08
2024-05-09T01:06:52.741Z,52.16
2024-05-09T01:11:55.450Z,52.13
2024-05-09T01:16:58.068Z,52.13
2024-05-09T01:22:00.858Z,52.37
2024-05-09T01:27:03.300Z,52.31
2024-05-09T01:32:08.200Z,52.81
2024-05-09T01:37:10.923Z,52.63
2024-05-09T01:42:13.406Z,52.94
2024-05-09T01:47:15.758Z,52.89
2024-05-09T01:52:18.564Z,53.31
2024-05-09T01:57:20.916Z,53.47
2024-05-09T02:02:23.221Z,53.47
2024-05-09T02:07:26.636Z,53.98
2024-05-09T02:12:28.742Z,54.01
2024-05-09T02:17:31.229Z,54.53
2024-05-09T02:22:33.500Z,55.02
2024-05-09T02:27:35.403Z,54.85
2024-05-09T02:32:37.642Z,55.26
2024-05-09T02:37:39.716Z,55.24
2024-05-09T02:42:41.962Z,55.39
2024-05-09T02:47:44.495Z,55.25
2024-05-09T02:52:46.733Z,55.13
2024-05-09T02:57:48.904Z,55.18
2024-05-09T03:02:51.164Z,55.26
2024-05-09T03:07:53.616Z,55.45
2024-05-09T03:12:56.061Z,55.32
2024-05-09T03:18:01.611Z,55.77
2024-05-09T03:23:05.488Z,55.67
2024-05-09T03:28:08.404Z,56.03
2024-05-09T03:33:19.362Z,55.72
2024-05-09T03:38:22.960Z,55.60
2024-05-09T03:43:26.039Z,55.71
2024-05-09T03:48:28.558Z,55.71
2024-05-09T03:53:32.319Z,55.41
2024-05-09T03:58:37.986Z,55.58
2024-05-09T04:03:40.490Z,55.76
2024-05-09T04:08:43.254Z,55.51
2024-05-09T04:13:45.777Z,56.05
2024-05-09T04:18:48.602Z,56.02
2024-05-09T04:23:53.665Z,55.73
2024-05-09T04:28:56.273Z,55.51
2024-05-09T04:33:58.931Z,55.87
2024-05-09T04:39:01.901Z,56.25
2024-05-09T04:44:04.655Z,56.04
2024-05-09T04:49:07.793Z,56.07
2024-05-09T04:54:15.769Z,56.07
2024-05-09T04:59:26.928Z,55.69
2024-05-09T05:04:30.264Z,55.99
2024-05-09T05:09:33.047Z,55.97
2024-05-09T05:14:35.359Z,56.31
2024-05-09T05:19:39.244Z,55.98
2024-05-09T05:24:41.763Z,56.55
2024-05-09T05:29:44.158Z,56.20
2024-05-09T05:34:46.780Z,56.59
2024-05-09T05:40:40.966Z,56.50
2024-05-09T05:45:43.657Z,56.14
2024-05-09T05:50:46.095Z,55.90
2024-05-09T05:55:48.498Z,55.98
2024-05-09T06:00:50.950Z,55.69
2024-05-09T06:05:53.234Z,55.60
2024-05-09T06:17:46.802Z,55.40
2024-05-09T06:22:49.568Z,54.58
2024-05-09T06:27:52.385Z,54.65
2024-05-09T06:32:54.986Z,54.67
2024-05-09T06:37:58.676Z,53.98
2024-05-09T06:43:01.164Z,53.72
2024-05-09T06:48:03.924Z,54.00
2024-05-09T06:53:07.668Z,53.83
2024-05-09T06:58:10.557Z,53.76
2024-05-09T07:03:17.092Z,52.80
2024-05-09T07:08:21.065Z,52.44
2024-05-09T07:13:23.617Z,51.78
2024-05-09T07:18:25.871Z,52.06
2024-05-09T07:23:28.824Z,51.88
2024-05-09T07:28:31.080Z,51.75
2024-05-09T07:33:33.598Z,50.63
2024-05-09T07:38:36.632Z,50.68
2024-05-09T07:43:39.142Z,50.63
2024-05-09T07:53:50.919Z,51.00
2024-05-09T07:58:56.047Z,50.96
2024-05-09T08:03:59.315Z,50.86
2024-05-09T08:09:05.474Z,50.44
2024-05-09T08:14:10.962Z,50.28
2024-05-09T08:19:13.361Z,50.22
2024-05-09T08:24:15.810Z,49.32
2024-05-09T08:29:18.034Z,48.84
2024-05-09T08:34:20.524Z,48.98
2024-05-09T08:39:22.964Z,48.83
2024-05-09T08:44:27.196Z,48.41
2024-05-09T08:49:31.185Z,48.61
2024-05-09T08:54:34.050Z,48.02
2024-05-09T08:59:45.407Z,47.89
2024-05-09T09:05:03.816Z,47.18
2024-05-09T09:10:12.914Z,47.33
2024-05-09T09:15:17.622Z,47.11
2024-05-09T09:20:26.348Z,46.41
2024-05-09T09:25:39.986Z,44.73
2024-05-09T09:30:43.202Z,44.06
2024-05-09T09:35:45.909Z,44.03
2024-05-09T09:40:50.215Z,43.75
2024-05-09T09:45:55.805Z,43.28
2024-05-09T09:50:58.686Z,43.87
2024-05-09T09:56:02.367Z,44.66
2024-05-09T10:01:30.585Z,44.73
2024-05-09T10:06:43.221Z,44.29
2024-05-09T10:11:51.804Z,44.10
2024-05-09T10:17:05.515Z,43.83
2024-05-09T10:22:11.423Z,44.30
2024-05-09T10:33:53.727Z,43.89
2024-05-09T10:38:56.499Z,44.27
2024-05-09T10:43:59.051Z,44.91
2024-05-09T10:49:05.312Z,44.65
2024-05-09T10:54:09.629Z,44.18
2024-05-09T10:59:14.610Z,43.84
2024-05-09T11:04:17.506Z,43.93
2024-05-09T11:09:20.643Z,43.45
2024-05-09T11:14:23.134Z,42.73
2024-05-09T11:19:34.501Z,42.25
2024-05-09T11:24:37.205Z,42.35
2024-05-09T11:29:44.728Z,41.94
2024-05-09T11:34:47.501Z,42.08
2024-05-09T11:39:50.619Z,42.42
2024-05-09T11:44:53.137Z,42.42
2024-05-09T11:49:57.231Z,42.59
2024-05-09T11:54:59.878Z,42.74
2024-05-09T12:00:03.198Z,43.20
2024-05-09T12:05:06.998Z,42.48
2024-05-09T12:10:16.462Z,42.64
2024-05-09T12:15:21.893Z,42.40
2024-05-09T12:20:32.380Z,42.29
2024-05-09T12:25:40.008Z,42.54
2024-05-09T12:30:43.004Z,41.93
2024-05-09T12:35:47.353Z,40.98
2024-05-09T12:40:51.940Z,40.85
2024-05-09T12:45:54.404Z,40.43
2024-05-09T12:50:58.035Z,40.94
2024-05-09T12:56:02.481Z,40.19
2024-05-09T13:01:08.789Z,40.44
2024-05-09T13:06:11.917Z,39.79
2024-05-09T13:11:14.700Z,39.80
2024-05-09T13:16:17.009Z,39.46
2024-05-09T13:21:19.230Z,39.67
2024-05-09T13:26:21.654Z,39.39
2024-05-09T13:31:24.269Z,39.32
2024-05-09T13:36:26.747Z,39.22
2024-05-09T13:41:28.862Z,39.25
2024-05-09T13:46:31.183Z,38.83
2024-05-09T13:51:34.656Z,38.90
2024-05-09T13:56:38.564Z,39.22
2024-05-09T14:01:41.024Z,38.80
2024-05-09T14:06:43.882Z,38.79
2024-05-09T14:11:46.474Z,38.49
2024-05-09T14:16:49.188Z,38.21
2024-05-09T14:21:51.464Z,38.72
2024-05-09T14:26:53.686Z,38.70
2024-05-09T14:31:56.157Z,38.42
2024-05-09T14:36:59.248Z,38.73
2024-05-09T14:42:01.473Z,38.95
2024-05-09T14:47:03.950Z,38.69
2024-05-09T14:52:06.369Z,38.16
2024-05-09T14:57:09.125Z,37.00
2024-05-09T15:03:02.942Z,37.51
2024-05-09T15:08:08.134Z,37.93
2024-05-09T15:13:12.299Z,38.02
2024-05-09T15:18:16.492Z,38.00
2024-05-09T15:23:19.129Z,38.01
2024-05-09T15:28:21.969Z,37.08
2024-05-09T15:33:24.806Z,37.38
2024-05-09T15:38:27.933Z,37.31
2024-05-09T15:43:58.358Z,37.71
2024-05-09T16:09:51.415Z,38.10
2024-05-09T16:14:53.722Z,38.10
2024-05-09T16:19:57.289Z,38.28
2024-05-09T16:24:59.688Z,38.13
2024-05-09T16:30:07.192Z,37.99
2024-05-09T16:35:14.598Z,38.09
2024-05-09T16:53:52.287Z,38.69
2024-05-09T17:05:50.853Z,38.20
2024-05-09T17:10:55.802Z,37.89
2024-05-09T17:15:58.441Z,37.96
2024-05-09T17:21:01.177Z,37.94
2024-05-09T17:26:03.547Z,38.25
2024-05-09T17:31:07.780Z,38.04
2024-05-09T17:36:10.475Z,38.39
2024-05-09T17:41:12.585Z,39.12
2024-05-09T17:46:15.109Z,39.36
2024-05-09T17:51:17.661Z,39.77
2024-05-09T17:56:19.980Z,40.51
2024-05-09T18:01:24.164Z,40.47
2024-05-09T18:06:26.748Z,40.71
2024-05-09T18:11:29.180Z,41.07
2024-05-09T18:16:31.287Z,41.79
2024-05-09T18:21:33.743Z,42.10
2024-05-09T18:26:36.753Z,42.88
2024-05-09T18:31:40.383Z,43.15
2024-05-09T18:36:43.061Z,43.19
2024-05-09T18:41:45.254Z,43.81
2024-05-09T18:46:47.304Z,43.69
2024-05-09T18:51:49.408Z,44.03
2024-05-09T18:56:51.593Z,43.92
2024-05-09T19:01:53.809Z,43.71
2024-05-09T19:06:56.336Z,44.05
2024-05-09T19:12:03.331Z,44.04
2024-05-09T19:17:05.540Z,44.42
2024-05-09T19:22:08.206Z,44.42
2024-05-09T19:27:10.578Z,44.69
2024-05-09T19:32:12.693Z,44.90
2024-05-09T19:37:14.996Z,44.75
2024-05-09T19:42:18.147Z,45.02
2024-05-09T19:47:20.688Z,44.93
2024-05-09T19:52:22.917Z,45.47
2024-05-09T19:57:27.541Z,45.30
2024-05-09T20:02:29.898Z,45.50
2024-05-09T20:07:34.393Z,45.77
2024-05-09T20:12:38.023Z,45.67
2024-05-09T20:17:40.192Z,45.94
2024-05-09T20:22:45.319Z,45.91
2024-05-09T20:27:47.540Z,46.23
2024-05-09T20:32:49.742Z,45.90
2024-05-09T20:37:52.022Z,46.00
2024-05-09T20:42:54.259Z,46.43
2024-05-09T20:47:57.976Z,46.59
2024-05-09T20:53:00.359Z,46.62
2024-05-09T20:58:02.566Z,46.78
2024-05-09T21:03:05.120Z,47.11
2024-05-09T21:08:08.076Z,46.97
2024-05-09T21:13:10.319Z,47.13
2024-05-09T21:18:12.702Z,47.56
2024-05-09T21:23:14.966Z,47.05
2024-05-09T21:28:17.321Z,47.18
2024-05-09T21:33:19.618Z,47.34
2024-05-09T21:38:22.218Z,47.51
2024-05-09T21:43:26.938Z,47.41
2024-05-09T21:48:29.092Z,47.55
2024-05-09T21:53:31.928Z,47.27
2024-05-09T21:58:34.560Z,47.65
2024-05-09T22:03:37.150Z,47.89
2024-05-09T22:08:39.796Z,48.09
2024-05-09T22:13:41.864Z,48.46
2024-05-09T22:18:47.139Z,48.31
2024-05-09T22:23:49.641Z,48.59
2024-05-09T22:28:51.920Z,48.71
2024-05-09T22:33:54.333Z,48.91
2024-05-09T22:38:57.072Z,49.06
2024-05-09T22:43:59.927Z,49.39
2024-05-09T22:49:02.649Z,49.16
2024-05-09T22:54:05.875Z,49.52
2024-05-09T22:59:08.191Z,49.56
2024-05-09T23:04:10.408Z,50.02
2024-05-09T23:09:13.239Z,49.96
2024-05-09T23:14:15.483Z,49.83
2024-05-09T23:19:17.690Z,49.88
2024-05-09T23:24:19.964Z,50.46
2024-05-09T23:29:22.213Z,50.34
2024-05-09T23:34:24.553Z,50.36
2024-05-09T23:39:27.358Z,50.37
2024-05-09T23:44:29.513Z,50.33
2024-05-09T23:49:31.898Z,50.57
2024-05-09T23:54:34.340Z,50.75
2024-05-09T23:59:36.459Z,50.84
